Time;durP1;ratioP1;P1;durP2;ratioP2;P2;SDS_P1;SDS_P2;PMS_P1;PMS_P2;Temp;Humidity;BMP_temperature;BMP_pressure;BME280_temperature;BME280_humidity;BME280_pressure;Samples;Min_cycle;Max_cycle;Signal;HPM_P1;HPM_P2
2022/02/17 00:02:27;;;;;;;;;;;19.30;99.90;;;;;;5014253;28;1111;-47
2022/02/17 00:05:11;;;;;;;;;;;19.30;99.90;;;;;;5010541;28;1126;-47
2022/02/17 00:07:57;;;;;;;;;;;19.30;99.90;;;;;;5016180;28;1919;-47
2022/02/17 00:10:42;;;;;;;;;;;19.20;99.90;;;;;;5016422;28;703;-47
2022/02/17 00:13:27;;;;;;;;;;;19.10;99.90;;;;;;5014297;28;954;-47
2022/02/17 00:16:11;;;;;;;;;;;19.00;99.90;;;;;;5016440;28;656;-47
2022/02/17 00:18:56;;;;;;;;;;;18.90;99.90;;;;;;5014846;28;1026;-56
2022/02/17 00:21:41;;;;;;;;;;;18.90;99.90;;;;;;5014555;28;1149;-56
2022/02/17 00:24:26;;;;;;;;;;;18.80;99.90;;;;;;5012911;28;950;-56
2022/02/17 00:27:10;;;;;;;;;;;18.70;99.90;;;;;;5012887;28;1899;-57
2022/02/17 00:29:56;;;;;;;;;;;18.60;99.90;;;;;;5015335;28;1045;-47
2022/02/17 00:32:41;;;;;;;;;;;18.60;99.90;;;;;;5009642;28;1013;-47
2022/02/17 00:35:26;;;;;;;;;;;18.50;99.90;;;;;;5014310;28;1052;-47
2022/02/17 00:38:11;;;;;;;;;;;18.50;99.90;;;;;;5014635;28;1045;-47
2022/02/17 00:40:55;;;;;;;;;;;18.40;99.90;;;;;;5014756;28;1191;-47
2022/02/17 00:43:40;;;;;;;;;;;18.40;99.90;;;;;;5017794;28;941;-47
2022/02/17 00:46:27;;;;;;;;;;;18.30;99.90;;;;;;5018073;28;1902;-47
2022/02/17 00:49:11;;;;;;;;;;;18.30;99.90;;;;;;5019734;28;620;-47
2022/02/17 00:51:55;;;;;;;;;;;18.30;99.90;;;;;;5018573;28;1162;-47
2022/02/17 00:54:40;;;;;;;;;;;18.20;99.90;;;;;;5021381;28;938;-47
2022/02/17 00:57:25;;;;;;;;;;;18.20;99.90;;;;;;5018972;28;576;-47
2022/02/17 01:00:09;;;;;;;;;;;18.10;99.90;;;;;;5018878;28;692;-47
2022/02/17 01:02:54;;;;;;;;;;;18.10;99.90;;;;;;5018824;28;640;-47
2022/02/17 01:05:39;;;;;;;;;;;18.10;99.90;;;;;;5017416;28;1208;-47
2022/02/17 01:08:24;;;;;;;;;;;18.00;99.90;;;;;;5018127;28;1977;-56
2022/02/17 01:11:09;;;;;;;;;;;18.00;99.90;;;;;;5018498;28;600;-56
2022/02/17 01:13:54;;;;;;;;;;;18.00;99.90;;;;;;5018629;28;596;-56
2022/02/17 01:16:38;;;;;;;;;;;17.90;99.90;;;;;;5018587;28;779;-46
2022/02/17 01:19:23;;;;;;;;;;;17.90;99.90;;;;;;5018471;28;612;-47
2022/02/17 01:22:08;;;;;;;;;;;17.90;99.90;;;;;;5018249;28;592;-47
2022/02/17 01:24:52;;;;;;;;;;;17.80;99.90;;;;;;5030532;28;885;-49
2022/02/17 01:27:38;;;;;;;;;;;17.80;99.90;;;;;;5017927;28;1902;-47
2022/02/17 01:30:23;;;;;;;;;;;17.80;99.90;;;;;;4986531;28;885;-47
2022/02/17 01:33:08;;;;;;;;;;;17.70;99.90;;;;;;5018020;28;720;-47
2022/02/17 01:35:52;;;;;;;;;;;17.70;99.90;;;;;;5017405;28;592;-47
2022/02/17 01:38:38;;;;;;;;;;;17.60;99.90;;;;;;5012471;28;1347;-47
2022/02/17 01:41:23;;;;;;;;;;;17.60;99.90;;;;;;5017357;28;640;-46
2022/02/17 01:44:08;;;;;;;;;;;17.60;99.90;;;;;;5017773;28;668;-46
2022/02/17 01:46:52;;;;;;;;;;;17.50;99.90;;;;;;5017589;28;1894;-55
2022/02/17 01:49:39;;;;;;;;;;;17.50;99.90;;;;;;5018084;28;586;-55
2022/02/17 01:52:24;;;;;;;;;;;17.50;99.90;;;;;;5017322;28;747;-46
2022/02/17 01:55:08;;;;;;;;;;;17.40;99.90;;;;;;5017342;28;620;-56
2022/02/17 01:57:53;;;;;;;;;;;17.40;99.90;;;;;;5017746;28;620;-55
2022/02/17 02:00:38;;;;;;;;;;;17.40;99.90;;;;;;5017765;28;743;-55
2022/02/17 02:03:23;;;;;;;;;;;17.30;99.90;;;;;;5017659;28;615;-55
2022/02/17 02:06:09;;;;;;;;;;;17.30;99.90;;;;;;5016953;28;1210;-54
2022/02/17 02:08:54;;;;;;;;;;;17.30;99.90;;;;;;5017257;28;683;-55
2022/02/17 02:11:40;;;;;;;;;;;17.20;99.90;;;;;;5017597;28;556;-55
2022/02/17 02:14:24;;;;;;;;;;;17.20;99.90;;;;;;5017459;28;632;-55
2022/02/17 02:17:11;;;;;;;;;;;17.20;99.90;;;;;;5017551;28;608;-55
2022/02/17 02:19:58;;;;;;;;;;;17.20;99.90;;;;;;5015469;28;662;-55
2022/02/17 02:22:43;;;;;;;;;;;17.10;99.90;;;;;;5017458;28;599;-55
2022/02/17 02:25:28;;;;;;;;;;;17.10;99.90;;;;;;5017122;28;581;-56
2022/02/17 02:28:17;;;;;;;;;;;17.10;99.90;;;;;;5017198;28;1906;-55
2022/02/17 02:31:02;;;;;;;;;;;17.10;99.90;;;;;;5017200;28;722;-56
2022/02/17 02:33:47;;;;;;;;;;;17.00;99.90;;;;;;5017120;28;569;-55
2022/02/17 02:36:31;;;;;;;;;;;17.00;99.90;;;;;;5014793;28;1044;-55
2022/02/17 02:39:16;;;;;;;;;;;16.90;99.90;;;;;;5016076;28;597;-59
2022/02/17 02:42:01;;;;;;;;;;;16.90;99.90;;;;;;5016949;28;561;-55
2022/02/17 02:44:45;;;;;;;;;;;16.90;99.90;;;;;;5016682;28;1071;-55
2022/02/17 02:47:29;;;;;;;;;;;16.90;99.90;;;;;;5016005;28;1965;-55
2022/02/17 02:50:15;;;;;;;;;;;16.90;99.90;;;;;;5016833;28;1009;-55
2022/02/17 02:53:00;;;;;;;;;;;16.80;99.90;;;;;;5017621;28;906;-55
2022/02/17 02:55:48;;;;;;;;;;;16.80;99.90;;;;;;5016194;28;692;-55
2022/02/17 02:58:33;;;;;;;;;;;16.80;99.90;;;;;;5012898;28;1474;-55
2022/02/17 03:01:20;;;;;;;;;;;16.70;99.90;;;;;;5016684;28;612;-55
2022/02/17 03:04:05;;;;;;;;;;;16.70;99.90;;;;;;5015667;28;1258;-55
2022/02/17 03:06:51;;;;;;;;;;;16.70;99.90;;;;;;5014421;28;1983;-54
2022/02/17 03:09:35;;;;;;;;;;;16.70;99.90;;;;;;5015006;28;572;-55
2022/02/17 03:12:20;;;;;;;;;;;16.60;99.90;;;;;;5016464;28;632;-55
2022/02/17 03:15:05;;;;;;;;;;;16.60;99.90;;;;;;5015627;28;711;-54
2022/02/17 03:17:50;;;;;;;;;;;16.60;99.90;;;;;;5016363;28;589;-55
2022/02/17 03:20:35;;;;;;;;;;;16.50;99.90;;;;;;5016349;28;561;-55
2022/02/17 03:23:21;;;;;;;;;;;16.50;99.90;;;;;;5015086;28;561;-55
2022/02/17 03:26:05;;;;;;;;;;;16.50;99.90;;;;;;5016294;28;612;-55
2022/02/17 03:28:49;;;;;;;;;;;16.50;99.90;;;;;;5015890;28;1914;-55
2022/02/17 03:31:34;;;;;;;;;;;16.40;99.90;;;;;;5014332;28;1188;-55
2022/02/17 03:34:19;;;;;;;;;;;16.40;99.90;;;;;;5016148;28;647;-55
2022/02/17 03:37:04;;;;;;;;;;;16.40;99.90;;;;;;5018496;28;627;-55
2022/02/17 03:39:50;;;;;;;;;;;16.40;99.90;;;;;;5015532;28;719;-54
2022/02/17 03:42:35;;;;;;;;;;;16.30;99.90;;;;;;5017140;28;1316;-55
2022/02/17 03:45:20;;;;;;;;;;;16.30;99.90;;;;;;5015144;28;1401;-55
2022/02/17 03:48:05;;;;;;;;;;;16.30;99.90;;;;;;5015651;28;1887;-55
2022/02/17 03:50:50;;;;;;;;;;;16.30;99.90;;;;;;5015580;28;600;-54
2022/02/17 03:53:34;;;;;;;;;;;16.30;99.90;;;;;;5015762;28;683;-55
2022/02/17 03:56:19;;;;;;;;;;;16.30;99.90;;;;;;5015827;28;704;-54
2022/02/17 03:59:08;;;;;;;;;;;16.20;99.90;;;;;;5028195;28;962;-54
2022/02/17 04:01:53;;;;;;;;;;;16.20;99.90;;;;;;5015715;28;615;-55
2022/02/17 04:04:38;;;;;;;;;;;16.20;99.90;;;;;;5015351;28;1059;-55
2022/02/17 04:07:22;;;;;;;;;;;16.20;99.90;;;;;;5011595;28;1979;-55
2022/02/17 04:10:07;;;;;;;;;;;16.20;99.90;;;;;;5015636;28;620;-54
2022/02/17 04:12:53;;;;;;;;;;;16.10;99.90;;;;;;5015704;28;611;-54
2022/02/17 04:15:37;;;;;;;;;;;16.10;99.90;;;;;;5012645;28;572;-55
2022/02/17 04:18:22;;;;;;;;;;;16.10;99.90;;;;;;5019361;28;656;-55
2022/02/17 04:21:06;;;;;;;;;;;16.10;99.90;;;;;;5019654;28;723;-55
2022/02/17 04:23:51;;;;;;;;;;;16.10;99.90;;;;;;5015202;28;589;-55
2022/02/17 04:26:37;;;;;;;;;;;16.10;99.90;;;;;;5019501;28;616;-55
2022/02/17 04:29:22;;;;;;;;;;;16.00;99.90;;;;;;5019362;28;699;-54
2022/02/17 04:32:07;;;;;;;;;;;16.00;99.90;;;;;;5019435;28;588;-55
2022/02/17 04:34:53;;;;;;;;;;;16.00;99.90;;;;;;5019037;28;633;-56
2022/02/17 04:37:38;;;;;;;;;;;16.00;99.90;;;;;;5018975;28;597;-54
2022/02/17 04:42:18;;;;;;;;;;;16.00;99.90;;;;;;5019172;28;608;-54
2022/02/17 04:43:29;;;;;;;;;;;16.00;99.90;;;;;;5018963;28;623;-46
2022/02/17 04:46:14;;;;;;;;;;;15.90;99.90;;;;;;5018945;28;652;-46
2022/02/17 04:48:58;;;;;;;;;;;15.90;99.90;;;;;;5018809;28;1964;-46
2022/02/17 04:51:43;;;;;;;;;;;15.90;99.90;;;;;;5023928;28;977;-46
2022/02/17 04:54:28;;;;;;;;;;;15.90;99.90;;;;;;5018841;28;608;-46
2022/02/17 04:57:13;;;;;;;;;;;15.90;99.90;;;;;;5018952;28;728;-46
2022/02/17 04:59:58;;;;;;;;;;;15.90;99.90;;;;;;5016038;28;1255;-46
2022/02/17 05:02:43;;;;;;;;;;;15.80;99.90;;;;;;5018788;28;663;-46
2022/02/17 05:05:29;;;;;;;;;;;15.80;99.90;;;;;;5018197;28;1015;-46
2022/02/17 05:08:14;;;;;;;;;;;15.80;99.90;;;;;;5018461;28;1898;-46
2022/02/17 05:10:58;;;;;;;;;;;15.80;99.90;;;;;;5018497;28;649;-46
2022/02/17 05:13:43;;;;;;;;;;;15.80;99.90;;;;;;5018712;28;751;-46
2022/02/17 05:16:28;;;;;;;;;;;15.70;99.90;;;;;;5018420;28;576;-46
2022/02/17 05:19:12;;;;;;;;;;;15.70;99.90;;;;;;5018247;28;660;-46
2022/02/17 05:21:58;;;;;;;;;;;15.70;99.90;;;;;;5018460;28;739;-54
2022/02/17 05:24:42;;;;;;;;;;;15.70;99.90;;;;;;5016481;28;1380;-55
2022/02/17 05:27:27;;;;;;;;;;;15.70;99.90;;;;;;5017372;28;1910;-54
2022/02/17 05:30:11;;;;;;;;;;;15.70;99.90;;;;;;5018149;28;636;-54
2022/02/17 05:32:57;;;;;;;;;;;15.70;99.90;;;;;;5018312;28;592;-54
2022/02/17 05:35:41;;;;;;;;;;;15.60;99.90;;;;;;5018145;28;620;-54
2022/02/17 05:38:27;;;;;;;;;;;15.60;99.90;;;;;;5017520;28;605;-54
2022/02/17 05:41:12;;;;;;;;;;;15.60;99.90;;;;;;5013983;28;573;-54
2022/02/17 05:43:58;;;;;;;;;;;15.60;99.90;;;;;;5018128;28;628;-55
2022/02/17 05:46:42;;;;;;;;;;;15.60;99.90;;;;;;5017201;28;569;-55
2022/02/17 05:49:28;;;;;;;;;;;15.60;99.90;;;;;;5013995;28;640;-55
2022/02/17 05:52:13;;;;;;;;;;;15.60;99.90;;;;;;5017900;28;592;-54
2022/02/17 05:54:59;;;;;;;;;;;15.50;99.90;;;;;;5017789;28;714;-54
2022/02/17 05:57:44;;;;;;;;;;;15.50;99.90;;;;;;5014145;28;612;-54
2022/02/17 06:00:30;;;;;;;;;;;15.50;99.90;;;;;;5016964;28;652;-54
2022/02/17 06:03:14;;;;;;;;;;;15.50;99.90;;;;;;5017438;28;568;-55
2022/02/17 06:06:00;;;;;;;;;;;15.50;99.90;;;;;;5017056;28;1034;-53
2022/02/17 06:08:44;;;;;;;;;;;15.50;99.90;;;;;;5017430;28;1973;-54
2022/02/17 06:11:30;;;;;;;;;;;15.50;99.90;;;;;;5017719;28;707;-54
2022/02/17 06:14:15;;;;;;;;;;;15.60;99.90;;;;;;5017515;28;619;-54
2022/02/17 06:16:59;;;;;;;;;;;15.60;99.90;;;;;;5016744;28;637;-54
2022/02/17 06:19:44;;;;;;;;;;;15.60;99.90;;;;;;5017265;28;645;-54
2022/02/17 06:22:28;;;;;;;;;;;15.60;99.90;;;;;;5017393;28;636;-54
2022/02/17 06:25:13;;;;;;;;;;;15.60;99.90;;;;;;5016850;28;592;-54
2022/02/17 06:28:00;;;;;;;;;;;15.70;99.90;;;;;;5017021;28;1973;-54
2022/02/17 06:30:45;;;;;;;;;;;15.70;99.90;;;;;;5017024;28;576;-54
2022/02/17 06:33:30;;;;;;;;;;;15.70;99.90;;;;;;5016901;28;747;-55
2022/02/17 06:36:17;;;;;;;;;;;15.80;99.90;;;;;;5017113;28;589;-55
2022/02/17 06:39:02;;;;;;;;;;;15.80;99.90;;;;;;5014363;28;588;-54
2022/02/17 06:41:46;;;;;;;;;;;15.80;99.90;;;;;;5016981;28;636;-54
2022/02/17 06:44:31;;;;;;;;;;;15.90;99.90;;;;;;5016568;28;576;-54
2022/02/17 06:47:15;;;;;;;;;;;15.90;99.90;;;;;;5016784;28;1875;-55
2022/02/17 06:50:00;;;;;;;;;;;15.90;99.90;;;;;;5016923;28;735;-54
2022/02/17 06:52:44;;;;;;;;;;;15.90;99.90;;;;;;5016817;28;649;-54
2022/02/17 06:55:31;;;;;;;;;;;15.90;99.90;;;;;;5016597;28;620;-54
2022/02/17 06:58:16;;;;;;;;;;;15.90;99.90;;;;;;5016253;28;1206;-54
2022/02/17 07:01:00;;;;;;;;;;;15.90;99.90;;;;;;5019019;28;942;-54
2022/02/17 07:03:45;;;;;;;;;;;15.90;99.90;;;;;;5016632;28;604;-54
2022/02/17 07:06:31;;;;;;;;;;;15.90;99.90;;;;;;5015992;28;1099;-54
2022/02/17 07:09:15;;;;;;;;;;;15.90;99.90;;;;;;5016029;28;2354;-54
2022/02/17 07:12:01;;;;;;;;;;;16.00;99.90;;;;;;5016457;28;604;-54
2022/02/17 07:14:46;;;;;;;;;;;16.00;99.90;;;;;;5016264;28;649;-54
2022/02/17 07:17:31;;;;;;;;;;;16.00;99.90;;;;;;5014472;28;934;-54
2022/02/17 07:20:16;;;;;;;;;;;16.00;99.90;;;;;;5016524;28;1148;-55
2022/02/17 07:23:02;;;;;;;;;;;16.00;99.90;;;;;;5016931;28;613;-54
2022/02/17 07:25:47;;;;;;;;;;;16.10;99.90;;;;;;5010188;28;1266;-54
2022/02/17 07:28:31;;;;;;;;;;;16.10;99.90;;;;;;5016586;28;1907;-54
2022/02/17 07:31:15;;;;;;;;;;;16.10;99.90;;;;;;5016933;28;664;-54
2022/02/17 07:34:00;;;;;;;;;;;16.10;99.90;;;;;;5012762;28;671;-55
2022/02/17 07:36:45;;;;;;;;;;;16.20;99.90;;;;;;5016983;28;711;-54
2022/02/17 07:39:30;;;;;;;;;;;16.30;99.90;;;;;;5016222;28;703;-55
2022/02/17 07:42:16;;;;;;;;;;;16.60;99.90;;;;;;5012832;28;664;-54
2022/02/17 07:45:02;;;;;;;;;;;17.00;99.90;;;;;;5016738;28;747;-55
2022/02/17 07:47:47;;;;;;;;;;;17.50;99.90;;;;;;5015968;28;1890;-54
2022/02/17 07:50:32;;;;;;;;;;;17.90;99.90;;;;;;5016475;28;651;-55
2022/02/17 07:53:16;;;;;;;;;;;17.60;99.90;;;;;;5015965;28;744;-54
2022/02/17 07:56:01;;;;;;;;;;;17.20;99.90;;;;;;5016607;28;656;-55
2022/02/17 07:58:45;;;;;;;;;;;17.00;99.90;;;;;;5016734;28;727;-55
2022/02/17 08:01:30;;;;;;;;;;;16.80;99.90;;;;;;5016573;28;703;-55
2022/02/17 08:04:14;;;;;;;;;;;16.80;99.90;;;;;;5016075;28;1103;-55
2022/02/17 08:06:59;;;;;;;;;;;17.70;99.90;;;;;;5014394;28;1116;-55
2022/02/17 08:09:44;;;;;;;;;;;18.80;99.90;;;;;;5016528;28;684;-59
2022/02/17 08:12:28;;;;;;;;;;;19.70;99.90;;;;;;5013996;28;1139;-55
2022/02/17 08:15:13;;;;;;;;;;;20.40;99.90;;;;;;5014016;28;1327;-55
2022/02/17 08:17:59;;;;;;;;;;;19.80;99.90;;;;;;5014616;28;1083;-56
2022/02/17 08:20:45;;;;;;;;;;;20.00;99.90;;;;;;5013602;28;1063;-56
2022/02/17 08:23:33;;;;;;;;;;;20.50;99.90;;;;;;5015252;28;1191;-56
2022/02/17 08:26:18;;;;;;;;;;;19.60;99.90;;;;;;5011414;28;1103;-56
2022/02/17 08:29:02;;;;;;;;;;;18.80;99.90;;;;;;5012468;28;1961;-56
2022/02/17 08:31:49;;;;;;;;;;;18.30;99.90;;;;;;5013474;28;1358;-56
2022/02/17 08:34:33;;;;;;;;;;;17.90;99.90;;;;;;5012769;28;1397;-56
2022/02/17 08:37:18;;;;;;;;;;;17.60;99.90;;;;;;5016416;28;679;-55
2022/02/17 08:40:04;;;;;;;;;;;17.40;99.90;;;;;;5013180;28;720;-55
2022/02/17 08:42:49;;;;;;;;;;;17.30;99.90;;;;;;5015249;28;736;-55
2022/02/17 08:45:52;;;;;;;;;;;17.20;99.90;;;;;;5018751;28;655;-55
2022/02/17 08:48:37;;;;;;;;;;;17.20;99.90;;;;;;5016017;28;1910;-55
2022/02/17 08:51:24;;;;;;;;;;;17.20;99.90;;;;;;5015677;28;1243;-55
2022/02/17 08:54:09;;;;;;;;;;;17.10;99.90;;;;;;5015292;28;1474;-55
2022/02/17 08:56:54;;;;;;;;;;;17.20;99.90;;;;;;5019580;28;1596;-55
2022/02/17 08:59:38;;;;;;;;;;;17.10;99.90;;;;;;5014154;28;1676;-55
2022/02/17 09:02:24;;;;;;;;;;;17.10;99.90;;;;;;5016875;28;696;-54
2022/02/17 09:05:10;;;;;;;;;;;17.10;99.90;;;;;;5018898;28;1651;-47
2022/02/17 09:07:55;;;;;;;;;;;17.10;99.90;;;;;;5017347;28;1906;-47
2022/02/17 09:10:40;;;;;;;;;;;17.10;99.90;;;;;;5017367;28;1072;-51
2022/02/17 09:13:24;;;;;;;;;;;17.20;99.90;;;;;;5016728;28;1426;-55
2022/02/17 09:16:10;;;;;;;;;;;17.20;99.90;;;;;;5019649;28;1044;-55
2022/02/17 09:18:54;;;;;;;;;;;17.20;99.90;;;;;;4989761;28;1287;-55
2022/02/17 09:21:40;;;;;;;;;;;17.20;99.90;;;;;;5017842;28;1063;-55
2022/02/17 09:24:24;;;;;;;;;;;17.10;99.90;;;;;;5029425;28;1250;-55
2022/02/17 09:27:10;;;;;;;;;;;17.10;99.90;;;;;;5019260;28;715;-55
2022/02/17 09:29:55;;;;;;;;;;;17.10;99.90;;;;;;5018912;28;1655;-55
2022/02/17 09:32:39;;;;;;;;;;;17.20;99.90;;;;;;5018804;28;724;-55
2022/02/17 09:35:24;;;;;;;;;;;17.20;99.90;;;;;;5018945;28;747;-55
2022/02/17 09:38:13;;;;;;;;;;;17.30;99.90;;;;;;5018984;28;702;-55
2022/02/17 09:40:58;;;;;;;;;;;17.20;99.90;;;;;;5016101;28;676;-46
2022/02/17 09:43:44;;;;;;;;;;;17.20;99.90;;;;;;5018859;28;660;-46
2022/02/17 09:46:29;;;;;;;;;;;17.30;99.90;;;;;;5022160;28;711;-46
2022/02/17 09:49:16;;;;;;;;;;;17.20;99.90;;;;;;5018541;28;1911;-46
2022/02/17 09:52:01;;;;;;;;;;;17.20;99.90;;;;;;5018657;28;611;-46
2022/02/17 09:54:45;;;;;;;;;;;17.10;99.90;;;;;;5018644;28;664;-47
2022/02/17 09:57:32;;;;;;;;;;;17.10;99.90;;;;;;5018595;28;637;-46
2022/02/17 10:00:17;;;;;;;;;;;17.00;99.90;;;;;;5018482;28;671;-55
2022/02/17 10:03:20;;;;;;;;;;;17.00;99.90;;;;;;5018599;28;684;-55
2022/02/17 10:06:09;;;;;;;;;;;17.00;99.90;;;;;;5017142;28;1098;-55
2022/02/17 10:09:05;;;;;;;;;;;17.00;99.90;;;;;;5014903;28;1902;-55
2022/02/17 10:11:51;;;;;;;;;;;17.10;99.90;;;;;;5018287;28;667;-55
2022/02/17 10:14:36;;;;;;;;;;;17.10;99.90;;;;;;5014722;28;712;-55
2022/02/17 10:17:21;;;;;;;;;;;17.10;99.90;;;;;;5018222;28;751;-55
2022/02/17 10:20:05;;;;;;;;;;;17.10;99.90;;;;;;5018448;28;695;-55
2022/02/17 10:22:50;;;;;;;;;;;17.20;99.90;;;;;;5018128;28;676;-55
2022/02/17 10:25:35;;;;;;;;;;;17.20;99.90;;;;;;5017882;28;592;-55
2022/02/17 10:28:21;;;;;;;;;;;17.20;99.90;;;;;;5017948;28;1981;-55
2022/02/17 10:31:06;;;;;;;;;;;17.20;99.90;;;;;;5017861;28;668;-55
2022/02/17 10:33:53;;;;;;;;;;;17.20;99.90;;;;;;5017911;28;700;-56
2022/02/17 10:36:40;;;;;;;;;;;17.30;99.90;;;;;;5014554;28;1105;-58
2022/02/17 10:39:26;;;;;;;;;;;17.30;99.90;;;;;;5029142;28;1107;-56
2022/02/17 10:42:10;;;;;;;;;;;17.30;99.90;;;;;;5017802;28;684;-56
2022/02/17 10:44:55;;;;;;;;;;;17.40;99.90;;;;;;5022194;28;726;-56
2022/02/17 10:47:40;;;;;;;;;;;17.50;99.90;;;;;;5016990;28;1898;-56
2022/02/17 10:50:24;;;;;;;;;;;17.60;99.90;;;;;;5017404;28;1117;-57
2022/02/17 10:53:20;;;;;;;;;;;17.70;99.90;;;;;;5011303;28;1072;-57
2022/02/17 10:56:05;;;;;;;;;;;17.80;99.90;;;;;;5015502;28;1066;-57
2022/02/17 10:58:51;;;;;;;;;;;17.90;99.90;;;;;;5014682;28;1247;-57
2022/02/17 11:01:35;;;;;;;;;;;18.00;99.90;;;;;;5017288;28;647;-57
2022/02/17 11:04:20;;;;;;;;;;;18.20;99.90;;;;;;5016300;28;1652;-56
2022/02/17 11:07:05;;;;;;;;;;;18.30;99.90;;;;;;5017386;28;694;-57
2022/02/17 11:09:50;;;;;;;;;;;18.40;99.90;;;;;;5016536;28;1898;-57
2022/02/17 11:12:36;;;;;;;;;;;18.50;99.90;;;;;;5016010;28;1257;-57
2022/02/17 11:15:21;;;;;;;;;;;18.60;99.90;;;;;;5018288;28;1245;-57
2022/02/17 11:18:06;;;;;;;;;;;18.70;99.90;;;;;;5016781;28;1135;-57
2022/02/17 11:20:51;;;;;;;;;;;18.80;99.90;;;;;;5016441;28;1035;-56
2022/02/17 11:23:36;;;;;;;;;;;18.80;99.90;;;;;;5016278;28;1040;-56
2022/02/17 11:26:23;;;;;;;;;;;18.90;99.90;;;;;;5014431;28;1229;-57
2022/02/17 11:29:25;;;;;;;;;;;19.00;99.90;;;;;;5016448;28;1910;-58
2022/02/17 11:32:18;;;;;;;;;;;19.00;99.90;;;;;;5013975;28;700;-57
2022/02/17 11:35:03;;;;;;;;;;;19.10;99.90;;;;;;5016186;28;657;-57
2022/02/17 11:37:48;;;;;;;;;;;19.20;99.90;;;;;;5016883;28;584;-57
2022/02/17 11:40:53;;;;;;;;;;;19.20;99.90;;;;;;5016799;28;765;-56
2022/02/17 11:43:39;;;;;;;;;;;19.20;99.90;;;;;;5016411;28;1123;-57
2022/02/17 11:46:40;;;;;;;;;;;19.20;99.90;;;;;;5021503;28;1100;-57
2022/02/17 11:49:30;;;;;;;;;;;19.10;99.90;;;;;;5013511;28;1979;-57
2022/02/17 11:52:20;;;;;;;;;;;19.10;99.90;;;;;;5015453;28;1576;-58
2022/02/17 11:55:13;;;;;;;;;;;19.20;99.90;;;;;;5013482;28;1201;-57
2022/02/17 11:57:57;;;;;;;;;;;19.20;99.90;;;;;;5016096;28;584;-58
2022/02/17 12:00:42;;;;;;;;;;;19.10;99.90;;;;;;5016031;28;580;-48
2022/02/17 12:03:45;;;;;;;;;;;19.00;99.90;;;;;;5015817;28;1002;-48
2022/02/17 12:06:38;;;;;;;;;;;18.90;99.90;;;;;;5010922;28;1315;-48
2022/02/17 12:09:30;;;;;;;;;;;18.90;99.90;;;;;;5015691;28;1965;-55
2022/02/17 12:12:27;;;;;;;;;;;18.90;99.90;;;;;;5015771;28;1088;-57
2022/02/17 12:15:13;;;;;;;;;;;18.90;99.90;;;;;;5016764;28;1066;-57
2022/02/17 12:17:58;;;;;;;;;;;18.90;99.90;;;;;;5011048;28;581;-56
2022/02/17 12:20:43;;;;;;;;;;;19.00;99.90;;;;;;5018277;28;893;-57
2022/02/17 12:23:27;;;;;;;;;;;19.00;99.90;;;;;;5015959;28;760;-57
2022/02/17 12:26:12;;;;;;;;;;;19.00;99.90;;;;;;5011830;28;1112;-56
2022/02/17 12:28:57;;;;;;;;;;;19.00;99.90;;;;;;5012560;28;1974;-57
2022/02/17 12:31:42;;;;;;;;;;;19.00;99.90;;;;;;5015941;28;932;-56
2022/02/17 12:34:28;;;;;;;;;;;19.10;99.90;;;;;;5014429;28;1163;-58
2022/02/17 12:37:16;;;;;;;;;;;19.10;99.90;;;;;;5015289;28;1000;-58
2022/02/17 12:40:01;;;;;;;;;;;19.20;99.90;;;;;;5016852;28;997;-48
2022/02/17 12:42:49;;;;;;;;;;;19.20;99.90;;;;;;5018145;28;1249;-48
2022/02/17 12:45:39;;;;;;;;;;;19.20;99.90;;;;;;5018130;28;562;-48
2022/02/17 12:48:29;;;;;;;;;;;19.30;99.90;;;;;;5018752;28;1890;-48
2022/02/17 12:51:31;;;;;;;;;;;19.30;99.90;;;;;;5022687;28;1016;-48
2022/02/17 12:54:15;;;;;;;;;;;19.30;99.90;;;;;;5018962;28;991;-48
2022/02/17 12:57:03;;;;;;;;;;;19.30;99.90;;;;;;5019286;28;612;-53
2022/02/17 13:00:08;;;;;;;;;;;19.30;99.90;;;;;;5019300;28;608;-48
2022/02/17 13:02:54;;;;;;;;;;;19.20;99.90;;;;;;5019115;28;719;-46
2022/02/17 13:09:14;;;;;;;;;;;19.20;99.90;;;;;;5018531;28;1910;-47
2022/02/17 13:11:59;;;;;;;;;;;19.00;99.90;;;;;;5018992;28;735;-48
2022/02/17 13:14:45;;;;;;;;;;;19.00;99.90;;;;;;5021916;28;580;-46
2022/02/17 13:17:32;;;;;;;;;;;18.90;99.90;;;;;;5015427;28;952;-46
2022/02/17 13:20:27;;;;;;;;;;;18.80;99.90;;;;;;5018772;28;584;-46
2022/02/17 13:23:19;;;;;;;;;;;18.80;99.90;;;;;;5018882;28;597;-46
2022/02/17 13:26:22;;;;;;;;;;;18.80;99.90;;;;;;5018540;28;711;-46
2022/02/17 13:29:07;;;;;;;;;;;18.70;99.90;;;;;;5014754;28;1894;-46
2022/02/17 13:31:52;;;;;;;;;;;18.70;99.90;;;;;;5018900;28;731;-56
2022/02/17 13:34:38;;;;;;;;;;;18.70;99.90;;;;;;5018545;28;568;-57
2022/02/17 13:37:23;;;;;;;;;;;18.70;99.90;;;;;;5018073;28;825;-57
2022/02/17 13:40:08;;;;;;;;;;;18.70;99.90;;;;;;5018393;28;676;-57
2022/02/17 13:43:00;;;;;;;;;;;18.70;99.90;;;;;;5018353;28;604;-57
2022/02/17 13:45:45;;;;;;;;;;;18.60;99.90;;;;;;5015505;28;1051;-57
2022/02/17 13:48:34;;;;;;;;;;;18.60;99.90;;;;;;5012377;28;1972;-57
2022/02/17 13:51:19;;;;;;;;;;;18.70;99.90;;;;;;5018402;28;616;-57
2022/02/17 13:54:04;;;;;;;;;;;18.70;99.90;;;;;;5017085;28;885;-58
2022/02/17 13:56:49;;;;;;;;;;;18.70;99.90;;;;;;5018258;28;561;-47
2022/02/17 13:59:33;;;;;;;;;;;18.70;99.90;;;;;;5016577;28;845;-47
2022/02/17 14:02:28;;;;;;;;;;;18.70;99.90;;;;;;5017758;28;822;-48
2022/02/17 14:05:18;;;;;;;;;;;18.70;99.90;;;;;;5016699;28;1597;-47
2022/02/17 14:08:03;;;;;;;;;;;18.70;99.90;;;;;;5018106;28;715;-47
2022/02/17 14:10:48;;;;;;;;;;;18.70;99.90;;;;;;5017837;28;592;-47
2022/02/17 14:13:33;;;;;;;;;;;18.70;99.90;;;;;;5016822;28;1011;-47
2022/02/17 14:16:17;;;;;;;;;;;18.60;99.90;;;;;;5017436;28;1052;-47
2022/02/17 14:19:02;;;;;;;;;;;18.60;99.90;;;;;;5017368;28;993;-47
2022/02/17 14:21:46;;;;;;;;;;;18.50;99.90;;;;;;5015643;28;1011;-47
2022/02/17 14:24:31;;;;;;;;;;;18.50;99.90;;;;;;5016808;28;1079;-47
2022/02/17 14:27:16;;;;;;;;;;;18.50;99.90;;;;;;5014271;28;1313;-47
2022/02/17 14:30:00;;;;;;;;;;;18.40;99.90;;;;;;5010315;28;1913;-57
2022/02/17 14:32:45;;;;;;;;;;;18.40;99.90;;;;;;5015340;28;1044;-58
2022/02/17 14:35:31;;;;;;;;;;;18.40;99.90;;;;;;5012055;28;1178;-58
2022/02/17 14:38:16;;;;;;;;;;;18.40;99.90;;;;;;5014295;28;1355;-57
2022/02/17 14:41:00;;;;;;;;;;;18.40;99.90;;;;;;5014730;28;1079;-57
2022/02/17 14:43:45;;;;;;;;;;;18.40;99.90;;;;;;5011779;28;1146;-47
2022/02/17 14:46:31;;;;;;;;;;;18.40;99.90;;;;;;5017494;28;1114;-46
2022/02/17 14:49:16;;;;;;;;;;;18.40;99.90;;;;;;5014726;28;1967;-45
2022/02/17 14:52:01;;;;;;;;;;;18.40;99.90;;;;;;5013678;28;1071;-46
2022/02/17 14:54:45;;;;;;;;;;;18.30;99.90;;;;;;5015661;28;1242;-46
2022/02/17 14:57:30;;;;;;;;;;;18.30;99.90;;;;;;5021487;28;956;-46
2022/02/17 15:00:15;;;;;;;;;;;18.40;99.90;;;;;;5016095;28;596;-45
2022/02/17 15:02:59;;;;;;;;;;;18.30;99.90;;;;;;5014471;28;1257;-45
2022/02/17 15:05:44;;;;;;;;;;;18.30;99.90;;;;;;5016105;28;1638;-45
2022/02/17 15:08:31;;;;;;;;;;;18.30;99.90;;;;;;5016921;28;1969;-45
2022/02/17 15:11:15;;;;;;;;;;;18.30;99.90;;;;;;5014918;28;1066;-46
2022/02/17 15:14:00;;;;;;;;;;;18.30;99.90;;;;;;5012384;28;1117;-46
2022/02/17 15:16:45;;;;;;;;;;;18.20;99.90;;;;;;5013203;28;1110;-46
2022/02/17 15:22:33;;;;;;;;;;;18.20;99.90;;;;;;5015798;28;814;-46
2022/02/17 15:25:18;;;;;;;;;;;18.20;99.90;;;;;;5015989;28;597;-47
2022/02/17 15:28:03;;;;;;;;;;;18.20;99.90;;;;;;5016141;28;1023;-47
2022/02/17 15:30:48;;;;;;;;;;;18.20;99.90;;;;;;5012704;28;1230;-46
2022/02/17 15:33:32;;;;;;;;;;;18.20;99.90;;;;;;5016874;28;723;-46
2022/02/17 15:36:17;;;;;;;;;;;18.20;99.90;;;;;;5016515;28;656;-47
2022/02/17 15:39:02;;;;;;;;;;;18.20;99.90;;;;;;5016556;28;742;-46
2022/02/17 15:41:48;;;;;;;;;;;18.20;99.90;;;;;;5016126;28;1158;-46
2022/02/17 15:44:34;;;;;;;;;;;18.20;99.90;;;;;;5017382;28;1099;-46
2022/02/17 15:47:19;;;;;;;;;;;18.20;99.90;;;;;;5016665;28;723;-46
2022/02/17 15:50:04;;;;;;;;;;;18.20;99.90;;;;;;5016455;28;1968;-46
2022/02/17 15:52:49;;;;;;;;;;;18.20;99.90;;;;;;5014576;28;1166;-47
2022/02/17 15:55:34;;;;;;;;;;;18.20;99.90;;;;;;5010086;28;1327;-47
2022/02/17 15:58:19;;;;;;;;;;;18.20;99.90;;;;;;5015917;28;572;-47
2022/02/17 16:01:03;;;;;;;;;;;18.20;99.90;;;;;;5015702;28;893;-46
2022/02/17 16:03:48;;;;;;;;;;;18.10;99.90;;;;;;5015759;28;1608;-47
2022/02/17 16:06:32;;;;;;;;;;;18.10;99.90;;;;;;5013533;28;1233;-46
2022/02/17 16:09:17;;;;;;;;;;;18.10;99.90;;;;;;5013320;28;1967;-46
2022/02/17 16:12:03;;;;;;;;;;;18.10;99.90;;;;;;5017455;28;1075;-46
2022/02/17 16:14:48;;;;;;;;;;;18.10;99.90;;;;;;5018767;28;668;-46
2022/02/17 16:17:33;;;;;;;;;;;18.10;99.90;;;;;;5020028;28;1119;-46
2022/02/17 16:20:17;;;;;;;;;;;18.10;99.90;;;;;;5019371;28;679;-45
2022/02/17 16:23:02;;;;;;;;;;;18.10;99.90;;;;;;5020427;28;663;-46
2022/02/17 16:25:47;;;;;;;;;;;18.00;99.90;;;;;;5020440;28;608;-46
2022/02/17 16:28:31;;;;;;;;;;;18.00;99.90;;;;;;5019273;28;1958;-46
2022/02/17 16:31:16;;;;;;;;;;;18.00;99.90;;;;;;5019403;28;1060;-46
2022/02/17 16:34:02;;;;;;;;;;;18.00;99.90;;;;;;5018391;28;1117;-45
2022/02/17 16:36:47;;;;;;;;;;;18.00;99.90;;;;;;5019193;28;1052;-46